San Francisco, CA

1:14 AM PST on December 28, 2014 (GMT -0800)
SoMa | Change Station
CLOSE
Current Station
Personal Weather Station
Location: San Francisco, CA
Elevation: 36 ft
Nearby Weather Stations

Elev 36 ft 37.77 °N, 122.41 °W | Updated 16 seconds ago

Partly Cloudy
Partly Cloudy
49.6 °F
Feels Like 50 °F
N
1.3
Wind Variable Wind from NNW
Gusts 2.5 mph

Today
High -- | Low -- °F
--% Chance of Precip.
Yesterday
High -- | Low -- °F
Precip. -- in
7:24 AM 4:58 PM
Waxing Crescent, 46% visible
Pressure 30.37 in
Visibility 10.0 miles
Clouds Scattered Clouds 20000 ft
Windchill 50 °F
Dew Point 42 °F
Humidity 75%
Rainfall 0.00 in
Snow Depth Not available.
UV 0.0 out of 12
Pollen 5.70 out of 12
Air Quality Not available.
Flu Activity Not available.
METAR KSFO 280856Z 00000KT 10SM SCT200 10/06 A3037 RMK AO2 SLP283 T01000061 58001

More Conditions Fewer Conditions

Pressure 30.37 in
Visibility 10.0 miles
Clouds Scattered Clouds 20000 ft
Windchill 50 °F
Dew Point 42 °F
Humidity 75%
Rainfall 0.00 in
Snow Depth Not available.
UV 0.0 out of 12
Pollen 5.70 out of 12
Air Quality Not available.
Flu Activity Not available.
METAR KSFO 280856Z 00000KT 10SM SCT200 10/06 A3037 RMK AO2 SLP283 T01000061 58001

More Conditions Fewer Conditions

10-Day Weather Forecast

Almanac

Astronomy

Dec. 28, 2014 Rise Set
Actual Time
Civil Twilight
Nautical Twilight
Astronomical Twilight
Moon
Length of Visible Light
Length of Day
Tomorrow will be .
, % of the Moon is Illuminated

Today's Extremes

State Highs State Lows

Community

WunderPhotos

Upload Photos

1,781,210 photos uploaded!

WunderBlogs® & News

Nearby

Air Quality

  Air Quality AQ Index Pollutant
Not available.

Snow Depth

Station Depth Elevation

Earthquake Activity

City Distance Mag. Time & Date
Minimum magnitude displayed is 2.5.

Coastal Water Temperatures

Place Temperature

Nearby Weather Stations